sensor_id;sensor_type;location;lat;lon;timestamp;P1;durP1;ratioP1;P2;durP2;ratioP2
59052;SDS011;44843;44.728;10.396;2023-10-19T00:01:06;26.30;;;14.63;;
59052;SDS011;44843;44.728;10.396;2023-10-19T00:03:31;27.90;;;16.00;;
59052;SDS011;44843;44.728;10.396;2023-10-19T00:05:57;24.60;;;14.32;;
59052;SDS011;44843;44.728;10.396;2023-10-19T00:08:22;25.13;;;14.60;;
59052;SDS011;44843;44.728;10.396;2023-10-19T00:10:49;25.42;;;14.60;;
59052;SDS011;44843;44.728;10.396;2023-10-19T00:13:40;29.05;;;15.38;;
59052;SDS011;44843;44.728;10.396;2023-10-19T00:16:09;29.88;;;15.20;;
59052;SDS011;44843;44.728;10.396;2023-10-19T00:18:47;26.20;;;15.55;;
59052;SDS011;44843;44.728;10.396;2023-10-19T00:21:13;25.02;;;15.13;;
59052;SDS011;44843;44.728;10.396;2023-10-19T00:23:53;24.50;;;14.93;;
59052;SDS011;44843;44.728;10.396;2023-10-19T00:26:21;29.35;;;16.42;;
59052;SDS011;44843;44.728;10.396;2023-10-19T00:28:50;28.60;;;15.30;;
59052;SDS011;44843;44.728;10.396;2023-10-19T00:31:17;31.30;;;15.90;;
59052;SDS011;44843;44.728;10.396;2023-10-19T00:33:45;28.90;;;15.40;;
59052;SDS011;44843;44.728;10.396;2023-10-19T00:36:10;28.55;;;15.85;;
59052;SDS011;44843;44.728;10.396;2023-10-19T00:38:39;29.08;;;16.17;;
59052;SDS011;44843;44.728;10.396;2023-10-19T00:41:08;28.95;;;15.98;;
59052;SDS011;44843;44.728;10.396;2023-10-19T00:43:36;23.63;;;14.43;;
59052;SDS011;44843;44.728;10.396;2023-10-19T00:46:08;27.38;;;15.60;;
59052;SDS011;44843;44.728;10.396;2023-10-19T00:51:20;28.13;;;15.88;;
59052;SDS011;44843;44.728;10.396;2023-10-19T00:56:30;26.88;;;15.45;;
59052;SDS011;44843;44.728;10.396;2023-10-19T00:58:59;29.35;;;16.10;;
59052;SDS011;44843;44.728;10.396;2023-10-19T01:01:40;29.42;;;15.70;;
59052;SDS011;44843;44.728;10.396;2023-10-19T01:04:15;29.92;;;16.58;;
59052;SDS011;44843;44.728;10.396;2023-10-19T01:06:45;30.23;;;15.27;;
59052;SDS011;44843;44.728;10.396;2023-10-19T01:09:25;28.63;;;15.25;;
59052;SDS011;44843;44.728;10.396;2023-10-19T01:11:52;28.55;;;15.32;;
59052;SDS011;44843;44.728;10.396;2023-10-19T01:14:21;29.42;;;16.40;;
59052;SDS011;44843;44.728;10.396;2023-10-19T01:16:47;27.70;;;15.82;;
59052;SDS011;44843;44.728;10.396;2023-10-19T01:19:13;28.40;;;16.35;;
59052;SDS011;44843;44.728;10.396;2023-10-19T01:21:38;30.55;;;16.63;;
59052;SDS011;44843;44.728;10.396;2023-10-19T01:24:10;31.50;;;16.27;;
59052;SDS011;44843;44.728;10.396;2023-10-19T01:26:37;30.13;;;15.90;;
59052;SDS011;44843;44.728;10.396;2023-10-19T01:29:03;28.42;;;16.50;;
59052;SDS011;44843;44.728;10.396;2023-10-19T01:31:38;28.83;;;15.82;;
59052;SDS011;44843;44.728;10.396;2023-10-19T01:34:15;27.40;;;15.07;;
59052;SDS011;44843;44.728;10.396;2023-10-19T01:36:45;27.67;;;15.48;;
59052;SDS011;44843;44.728;10.396;2023-10-19T01:39:10;24.98;;;14.88;;
59052;SDS011;44843;44.728;10.396;2023-10-19T01:41:36;27.33;;;14.55;;
59052;SDS011;44843;44.728;10.396;2023-10-19T01:44:02;24.42;;;14.38;;
59052;SDS011;44843;44.728;10.396;2023-10-19T01:46:31;26.88;;;15.05;;
59052;SDS011;44843;44.728;10.396;2023-10-19T01:48:58;24.60;;;15.05;;
59052;SDS011;44843;44.728;10.396;2023-10-19T01:51:25;22.48;;;14.35;;
59052;SDS011;44843;44.728;10.396;2023-10-19T01:53:51;23.48;;;14.23;;
59052;SDS011;44843;44.728;10.396;2023-10-19T01:56:17;25.63;;;14.20;;
59052;SDS011;44843;44.728;10.396;2023-10-19T01:58:43;26.38;;;15.90;;
59052;SDS011;44843;44.728;10.396;2023-10-19T02:01:11;31.50;;;16.48;;
59052;SDS011;44843;44.728;10.396;2023-10-19T02:03:36;28.85;;;16.77;;
59052;SDS011;44843;44.728;10.396;2023-10-19T02:06:02;28.33;;;15.85;;
59052;SDS011;44843;44.728;10.396;2023-10-19T02:08:36;28.83;;;15.65;;
59052;SDS011;44843;44.728;10.396;2023-10-19T02:11:04;23.75;;;15.38;;
59052;SDS011;44843;44.728;10.396;2023-10-19T02:13:34;30.70;;;16.88;;
59052;SDS011;44843;44.728;10.396;2023-10-19T02:16:00;28.02;;;15.25;;
59052;SDS011;44843;44.728;10.396;2023-10-19T02:18:26;27.25;;;15.48;;
59052;SDS011;44843;44.728;10.396;2023-10-19T02:20:51;26.58;;;15.52;;
59052;SDS011;44843;44.728;10.396;2023-10-19T02:23:17;29.30;;;15.73;;
59052;SDS011;44843;44.728;10.396;2023-10-19T02:25:42;30.42;;;16.23;;
59052;SDS011;44843;44.728;10.396;2023-10-19T02:28:08;30.80;;;16.45;;
59052;SDS011;44843;44.728;10.396;2023-10-19T02:30:34;26.60;;;14.75;;
59052;SDS011;44843;44.728;10.396;2023-10-19T02:32:59;30.60;;;15.80;;
59052;SDS011;44843;44.728;10.396;2023-10-19T02:35:26;29.58;;;15.73;;
59052;SDS011;44843;44.728;10.396;2023-10-19T02:37:52;29.88;;;16.42;;
59052;SDS011;44843;44.728;10.396;2023-10-19T02:40:17;28.30;;;16.63;;
59052;SDS011;44843;44.728;10.396;2023-10-19T02:42:48;32.75;;;17.17;;
59052;SDS011;44843;44.728;10.396;2023-10-19T02:45:16;35.38;;;17.83;;
59052;SDS011;44843;44.728;10.396;2023-10-19T02:47:45;32.25;;;17.85;;
59052;SDS011;44843;44.728;10.396;2023-10-19T02:50:11;26.48;;;15.52;;
59052;SDS011;44843;44.728;10.396;2023-10-19T02:52:40;29.10;;;17.00;;
59052;SDS011;44843;44.728;10.396;2023-10-19T02:55:07;28.85;;;15.52;;
59052;SDS011;44843;44.728;10.396;2023-10-19T02:57:32;28.95;;;16.13;;
59052;SDS011;44843;44.728;10.396;2023-10-19T02:59:58;31.38;;;16.90;;
59052;SDS011;44843;44.728;10.396;2023-10-19T03:02:24;28.80;;;16.50;;
59052;SDS011;44843;44.728;10.396;2023-10-19T03:04:52;28.60;;;15.65;;
59052;SDS011;44843;44.728;10.396;2023-10-19T03:07:18;31.55;;;17.83;;
59052;SDS011;44843;44.728;10.396;2023-10-19T03:09:43;32.88;;;16.50;;
59052;SDS011;44843;44.728;10.396;2023-10-19T03:12:14;33.90;;;17.20;;
59052;SDS011;44843;44.728;10.396;2023-10-19T03:14:40;32.20;;;16.85;;
59052;SDS011;44843;44.728;10.396;2023-10-19T03:17:08;28.85;;;16.65;;
59052;SDS011;44843;44.728;10.396;2023-10-19T03:19:34;29.67;;;17.25;;
59052;SDS011;44843;44.728;10.396;2023-10-19T03:22:03;30.80;;;17.52;;
59052;SDS011;44843;44.728;10.396;2023-10-19T03:24:31;27.35;;;15.73;;
59052;SDS011;44843;44.728;10.396;2023-10-19T03:27:09;29.67;;;15.13;;
59052;SDS011;44843;44.728;10.396;2023-10-19T03:29:47;33.58;;;17.27;;
59052;SDS011;44843;44.728;10.396;2023-10-19T03:32:20;30.55;;;16.98;;
59052;SDS011;44843;44.728;10.396;2023-10-19T03:34:51;29.98;;;16.88;;
59052;SDS011;44843;44.728;10.396;2023-10-19T03:37:20;27.63;;;16.33;;
59052;SDS011;44843;44.728;10.396;2023-10-19T03:39:47;29.73;;;17.50;;
59052;SDS011;44843;44.728;10.396;2023-10-19T03:42:12;31.77;;;17.50;;
59052;SDS011;44843;44.728;10.396;2023-10-19T03:44:39;33.90;;;17.50;;
59052;SDS011;44843;44.728;10.396;2023-10-19T03:47:24;30.75;;;17.02;;
59052;SDS011;44843;44.728;10.396;2023-10-19T03:50:00;30.58;;;17.15;;
59052;SDS011;44843;44.728;10.396;2023-10-19T03:52:25;28.90;;;16.75;;
59052;SDS011;44843;44.728;10.396;2023-10-19T03:54:55;32.28;;;17.20;;
59052;SDS011;44843;44.728;10.396;2023-10-19T03:57:21;32.00;;;16.80;;
59052;SDS011;44843;44.728;10.396;2023-10-19T03:59:50;34.67;;;17.23;;
59052;SDS011;44843;44.728;10.396;2023-10-19T04:02:21;30.27;;;16.58;;
59052;SDS011;44843;44.728;10.396;2023-10-19T04:04:46;29.30;;;17.13;;
59052;SDS011;44843;44.728;10.396;2023-10-19T04:07:13;33.25;;;18.92;;
59052;SDS011;44843;44.728;10.396;2023-10-19T04:09:51;30.17;;;16.48;;
59052;SDS011;44843;44.728;10.396;2023-10-19T04:12:32;30.98;;;16.65;;
59052;SDS011;44843;44.728;10.396;2023-10-19T04:14:58;30.15;;;16.40;;
59052;SDS011;44843;44.728;10.396;2023-10-19T04:17:25;31.67;;;16.92;;
59052;SDS011;44843;44.728;10.396;2023-10-19T04:19:51;31.50;;;16.25;;
59052;SDS011;44843;44.728;10.396;2023-10-19T04:22:17;30.00;;;16.67;;
59052;SDS011;44843;44.728;10.396;2023-10-19T04:24:51;29.50;;;16.15;;
59052;SDS011;44843;44.728;10.396;2023-10-19T04:27:17;30.90;;;16.45;;
59052;SDS011;44843;44.728;10.396;2023-10-19T04:29:42;30.38;;;16.63;;
59052;SDS011;44843;44.728;10.396;2023-10-19T04:32:09;26.65;;;16.65;;
59052;SDS011;44843;44.728;10.396;2023-10-19T04:34:35;28.17;;;16.17;;
59052;SDS011;44843;44.728;10.396;2023-10-19T04:37:01;27.63;;;16.17;;
59052;SDS011;44843;44.728;10.396;2023-10-19T04:39:28;31.05;;;16.33;;
59052;SDS011;44843;44.728;10.396;2023-10-19T04:41:55;29.50;;;17.17;;
59052;SDS011;44843;44.728;10.396;2023-10-19T04:44:21;32.08;;;16.55;;
59052;SDS011;44843;44.728;10.396;2023-10-19T04:46:46;32.15;;;16.42;;
59052;SDS011;44843;44.728;10.396;2023-10-19T04:49:11;32.05;;;17.23;;
59052;SDS011;44843;44.728;10.396;2023-10-19T04:51:36;27.95;;;16.90;;
59052;SDS011;44843;44.728;10.396;2023-10-19T04:54:04;35.45;;;18.38;;
59052;SDS011;44843;44.728;10.396;2023-10-19T04:56:29;29.52;;;17.48;;
59052;SDS011;44843;44.728;10.396;2023-10-19T04:58:54;35.05;;;17.55;;
59052;SDS011;44843;44.728;10.396;2023-10-19T05:01:20;29.73;;;17.38;;
59052;SDS011;44843;44.728;10.396;2023-10-19T05:03:45;32.33;;;17.35;;
59052;SDS011;44843;44.728;10.396;2023-10-19T05:06:10;34.67;;;17.77;;
59052;SDS011;44843;44.728;10.396;2023-10-19T05:08:36;32.90;;;16.88;;
59052;SDS011;44843;44.728;10.396;2023-10-19T05:11:01;33.80;;;17.60;;
59052;SDS011;44843;44.728;10.396;2023-10-19T05:13:27;31.38;;;18.00;;
59052;SDS011;44843;44.728;10.396;2023-10-19T05:15:55;32.08;;;16.67;;
59052;SDS011;44843;44.728;10.396;2023-10-19T05:18:21;35.25;;;18.27;;
59052;SDS011;44843;44.728;10.396;2023-10-19T05:20:47;32.47;;;18.25;;
59052;SDS011;44843;44.728;10.396;2023-10-19T05:23:12;33.42;;;18.40;;
59052;SDS011;44843;44.728;10.396;2023-10-19T05:25:38;33.03;;;16.80;;
59052;SDS011;44843;44.728;10.396;2023-10-19T05:28:06;34.50;;;17.40;;
59052;SDS011;44843;44.728;10.396;2023-10-19T05:30:32;31.80;;;16.65;;
59052;SDS011;44843;44.728;10.396;2023-10-19T05:32:58;33.40;;;17.77;;
59052;SDS011;44843;44.728;10.396;2023-10-19T05:35:25;34.92;;;18.60;;
59052;SDS011;44843;44.728;10.396;2023-10-19T05:37:51;31.13;;;16.77;;
59052;SDS011;44843;44.728;10.396;2023-10-19T05:40:17;34.13;;;17.58;;
59052;SDS011;44843;44.728;10.396;2023-10-19T05:42:44;37.63;;;19.38;;
59052;SDS011;44843;44.728;10.396;2023-10-19T05:45:09;37.15;;;19.55;;
59052;SDS011;44843;44.728;10.396;2023-10-19T05:47:38;34.30;;;17.88;;
59052;SDS011;44843;44.728;10.396;2023-10-19T05:50:03;35.45;;;18.75;;
59052;SDS011;44843;44.728;10.396;2023-10-19T05:52:29;36.70;;;18.35;;
59052;SDS011;44843;44.728;10.396;2023-10-19T05:54:54;34.22;;;17.48;;
59052;SDS011;44843;44.728;10.396;2023-10-19T05:57:20;32.20;;;17.50;;
59052;SDS011;44843;44.728;10.396;2023-10-19T05:59:45;36.65;;;19.30;;
59052;SDS011;44843;44.728;10.396;2023-10-19T06:02:10;36.83;;;18.38;;
59052;SDS011;44843;44.728;10.396;2023-10-19T06:04:35;33.33;;;17.60;;
59052;SDS011;44843;44.728;10.396;2023-10-19T06:07:00;35.50;;;17.50;;
59052;SDS011;44843;44.728;10.396;2023-10-19T06:09:26;32.50;;;17.35;;
59052;SDS011;44843;44.728;10.396;2023-10-19T06:11:54;35.85;;;17.77;;
59052;SDS011;44843;44.728;10.396;2023-10-19T06:14:20;37.75;;;19.55;;
59052;SDS011;44843;44.728;10.396;2023-10-19T06:16:45;35.97;;;17.23;;
59052;SDS011;44843;44.728;10.396;2023-10-19T06:19:10;35.17;;;17.92;;
59052;SDS011;44843;44.728;10.396;2023-10-19T06:21:35;39.78;;;19.15;;
59052;SDS011;44843;44.728;10.396;2023-10-19T06:24:02;33.47;;;18.83;;
59052;SDS011;44843;44.728;10.396;2023-10-19T06:26:27;33.00;;;17.92;;
59052;SDS011;44843;44.728;10.396;2023-10-19T06:28:53;33.17;;;17.63;;
59052;SDS011;44843;44.728;10.396;2023-10-19T06:31:23;33.60;;;18.05;;
59052;SDS011;44843;44.728;10.396;2023-10-19T06:33:49;39.03;;;18.88;;
59052;SDS011;44843;44.728;10.396;2023-10-19T06:36:14;33.95;;;18.77;;
59052;SDS011;44843;44.728;10.396;2023-10-19T06:38:39;35.13;;;18.42;;
59052;SDS011;44843;44.728;10.396;2023-10-19T06:41:11;35.03;;;18.05;;
59052;SDS011;44843;44.728;10.396;2023-10-19T06:43:36;31.00;;;16.58;;
59052;SDS011;44843;44.728;10.396;2023-10-19T06:46:02;31.88;;;17.48;;
59052;SDS011;44843;44.728;10.396;2023-10-19T06:48:27;31.65;;;17.25;;
59052;SDS011;44843;44.728;10.396;2023-10-19T06:50:52;31.00;;;17.15;;
59052;SDS011;44843;44.728;10.396;2023-10-19T06:53:17;33.03;;;16.52;;
59052;SDS011;44843;44.728;10.396;2023-10-19T06:55:43;29.30;;;16.90;;
59052;SDS011;44843;44.728;10.396;2023-10-19T06:58:08;31.08;;;16.92;;
59052;SDS011;44843;44.728;10.396;2023-10-19T07:00:34;33.88;;;16.42;;
59052;SDS011;44843;44.728;10.396;2023-10-19T07:02:59;29.17;;;15.48;;
59052;SDS011;44843;44.728;10.396;2023-10-19T07:05:25;29.70;;;15.38;;
59052;SDS011;44843;44.728;10.396;2023-10-19T07:07:54;25.63;;;14.80;;
59052;SDS011;44843;44.728;10.396;2023-10-19T07:10:21;30.58;;;14.95;;
59052;SDS011;44843;44.728;10.396;2023-10-19T07:12:47;32.42;;;14.50;;
59052;SDS011;44843;44.728;10.396;2023-10-19T07:15:13;35.67;;;15.60;;
59052;SDS011;44843;44.728;10.396;2023-10-19T07:17:42;30.08;;;15.98;;
59052;SDS011;44843;44.728;10.396;2023-10-19T07:20:07;36.70;;;15.52;;
59052;SDS011;44843;44.728;10.396;2023-10-19T07:22:34;29.45;;;15.38;;
59052;SDS011;44843;44.728;10.396;2023-10-19T07:25:03;26.77;;;15.25;;
59052;SDS011;44843;44.728;10.396;2023-10-19T07:27:30;28.52;;;15.57;;
59052;SDS011;44843;44.728;10.396;2023-10-19T07:29:56;25.38;;;13.60;;
59052;SDS011;44843;44.728;10.396;2023-10-19T07:32:22;23.88;;;13.40;;
59052;SDS011;44843;44.728;10.396;2023-10-19T07:34:47;25.23;;;13.13;;
59052;SDS011;44843;44.728;10.396;2023-10-19T07:37:13;27.05;;;13.48;;
59052;SDS011;44843;44.728;10.396;2023-10-19T07:39:44;25.95;;;13.98;;
59052;SDS011;44843;44.728;10.396;2023-10-19T07:42:09;27.23;;;14.77;;
59052;SDS011;44843;44.728;10.396;2023-10-19T07:44:36;28.63;;;14.55;;
59052;SDS011;44843;44.728;10.396;2023-10-19T07:47:01;27.88;;;14.38;;
59052;SDS011;44843;44.728;10.396;2023-10-19T07:49:26;22.77;;;13.05;;
59052;SDS011;44843;44.728;10.396;2023-10-19T07:51:52;28.55;;;15.65;;
59052;SDS011;44843;44.728;10.396;2023-10-19T07:54:17;25.23;;;14.18;;
59052;SDS011;44843;44.728;10.396;2023-10-19T07:56:42;22.73;;;13.60;;
59052;SDS011;44843;44.728;10.396;2023-10-19T07:59:08;23.30;;;13.85;;
59052;SDS011;44843;44.728;10.396;2023-10-19T08:01:34;22.30;;;12.95;;
59052;SDS011;44843;44.728;10.396;2023-10-19T08:03:59;23.48;;;13.02;;
59052;SDS011;44843;44.728;10.396;2023-10-19T08:06:24;23.63;;;12.80;;
59052;SDS011;44843;44.728;10.396;2023-10-19T08:08:51;29.20;;;14.35;;
59052;SDS011;44843;44.728;10.396;2023-10-19T08:11:16;22.60;;;13.35;;
59052;SDS011;44843;44.728;10.396;2023-10-19T08:13:42;22.02;;;13.10;;
59052;SDS011;44843;44.728;10.396;2023-10-19T08:16:07;27.80;;;13.48;;
59052;SDS011;44843;44.728;10.396;2023-10-19T08:18:33;19.25;;;11.57;;
59052;SDS011;44843;44.728;10.396;2023-10-19T08:21:00;24.45;;;12.07;;
59052;SDS011;44843;44.728;10.396;2023-10-19T08:23:26;20.42;;;11.77;;
59052;SDS011;44843;44.728;10.396;2023-10-19T08:25:52;21.13;;;12.02;;
59052;SDS011;44843;44.728;10.396;2023-10-19T08:28:17;25.02;;;12.90;;
59052;SDS011;44843;44.728;10.396;2023-10-19T08:30:43;19.17;;;10.60;;
59052;SDS011;44843;44.728;10.396;2023-10-19T08:33:10;23.25;;;12.32;;
59052;SDS011;44843;44.728;10.396;2023-10-19T08:35:38;22.00;;;11.50;;
59052;SDS011;44843;44.728;10.396;2023-10-19T08:38:04;17.77;;;10.70;;
59052;SDS011;44843;44.728;10.396;2023-10-19T08:40:36;20.20;;;9.57;;
59052;SDS011;44843;44.728;10.396;2023-10-19T08:43:01;19.23;;;10.95;;
59052;SDS011;44843;44.728;10.396;2023-10-19T08:45:26;19.08;;;10.95;;
59052;SDS011;44843;44.728;10.396;2023-10-19T08:47:56;22.45;;;12.02;;
59052;SDS011;44843;44.728;10.396;2023-10-19T08:50:23;21.75;;;11.25;;
59052;SDS011;44843;44.728;10.396;2023-10-19T08:52:49;22.13;;;11.57;;
59052;SDS011;44843;44.728;10.396;2023-10-19T08:55:17;21.63;;;11.02;;
59052;SDS011;44843;44.728;10.396;2023-10-19T08:57:42;21.38;;;10.70;;
59052;SDS011;44843;44.728;10.396;2023-10-19T09:00:08;22.90;;;11.07;;
59052;SDS011;44843;44.728;10.396;2023-10-19T09:02:34;22.85;;;11.48;;
59052;SDS011;44843;44.728;10.396;2023-10-19T09:05:04;26.55;;;12.05;;
59052;SDS011;44843;44.728;10.396;2023-10-19T09:07:31;24.25;;;10.75;;
59052;SDS011;44843;44.728;10.396;2023-10-19T09:09:59;17.05;;;8.88;;
59052;SDS011;44843;44.728;10.396;2023-10-19T09:12:24;16.75;;;9.25;;
59052;SDS011;44843;44.728;10.396;2023-10-19T09:14:50;19.70;;;9.25;;
59052;SDS011;44843;44.728;10.396;2023-10-19T09:17:15;19.00;;;8.82;;
59052;SDS011;44843;44.728;10.396;2023-10-19T09:19:43;20.70;;;9.60;;
59052;SDS011;44843;44.728;10.396;2023-10-19T09:22:09;16.48;;;9.30;;
59052;SDS011;44843;44.728;10.396;2023-10-19T09:24:47;17.00;;;8.98;;
59052;SDS011;44843;44.728;10.396;2023-10-19T09:27:16;20.13;;;9.80;;
59052;SDS011;44843;44.728;10.396;2023-10-19T09:29:42;19.58;;;10.45;;
59052;SDS011;44843;44.728;10.396;2023-10-19T09:32:07;16.75;;;9.18;;
59052;SDS011;44843;44.728;10.396;2023-10-19T09:34:33;18.05;;;8.65;;
59052;SDS011;44843;44.728;10.396;2023-10-19T09:37:02;20.52;;;9.57;;
59052;SDS011;44843;44.728;10.396;2023-10-19T09:39:28;14.95;;;7.85;;
59052;SDS011;44843;44.728;10.396;2023-10-19T09:42:05;16.05;;;8.45;;
59052;SDS011;44843;44.728;10.396;2023-10-19T09:44:32;15.82;;;8.82;;
59052;SDS011;44843;44.728;10.396;2023-10-19T09:46:59;17.45;;;8.63;;
59052;SDS011;44843;44.728;10.396;2023-10-19T09:49:28;16.55;;;8.95;;
59052;SDS011;44843;44.728;10.396;2023-10-19T09:51:54;18.05;;;9.50;;
59052;SDS011;44843;44.728;10.396;2023-10-19T09:54:21;17.50;;;9.30;;
59052;SDS011;44843;44.728;10.396;2023-10-19T09:56:49;19.35;;;9.32;;
59052;SDS011;44843;44.728;10.396;2023-10-19T09:59:28;18.73;;;9.68;;
59052;SDS011;44843;44.728;10.396;2023-10-19T10:04:38;19.60;;;9.52;;
59052;SDS011;44843;44.728;10.396;2023-10-19T10:07:05;20.10;;;10.35;;
59052;SDS011;44843;44.728;10.396;2023-10-19T10:09:31;17.58;;;9.43;;
59052;SDS011;44843;44.728;10.396;2023-10-19T10:12:14;22.23;;;9.38;;
59052;SDS011;44843;44.728;10.396;2023-10-19T10:14:40;18.70;;;10.15;;
59052;SDS011;44843;44.728;10.396;2023-10-19T10:17:17;19.13;;;9.90;;
59052;SDS011;44843;44.728;10.396;2023-10-19T10:19:43;17.17;;;9.85;;
59052;SDS011;44843;44.728;10.396;2023-10-19T10:22:09;21.67;;;9.57;;
59052;SDS011;44843;44.728;10.396;2023-10-19T10:24:40;17.08;;;9.38;;
59052;SDS011;44843;44.728;10.396;2023-10-19T10:27:05;18.92;;;10.02;;
59052;SDS011;44843;44.728;10.396;2023-10-19T10:29:31;18.70;;;10.32;;
59052;SDS011;44843;44.728;10.396;2023-10-19T10:31:56;19.33;;;9.95;;
59052;SDS011;44843;44.728;10.396;2023-10-19T10:37:07;19.45;;;10.60;;
59052;SDS011;44843;44.728;10.396;2023-10-19T10:39:33;20.50;;;10.20;;
59052;SDS011;44843;44.728;10.396;2023-10-19T10:42:01;20.38;;;10.20;;
59052;SDS011;44843;44.728;10.396;2023-10-19T10:47:09;18.98;;;10.27;;
59052;SDS011;44843;44.728;10.396;2023-10-19T10:49:53;18.70;;;9.70;;
59052;SDS011;44843;44.728;10.396;2023-10-19T10:55:06;17.65;;;10.02;;
59052;SDS011;44843;44.728;10.396;2023-10-19T10:57:32;20.40;;;10.20;;
59052;SDS011;44843;44.728;10.396;2023-10-19T11:00:01;19.80;;;10.50;;
59052;SDS011;44843;44.728;10.396;2023-10-19T11:02:29;20.50;;;11.13;;
59052;SDS011;44843;44.728;10.396;2023-10-19T11:04:54;19.08;;;9.50;;
59052;SDS011;44843;44.728;10.396;2023-10-19T11:07:20;19.25;;;11.05;;
59052;SDS011;44843;44.728;10.396;2023-10-19T11:09:46;21.58;;;11.52;;
59052;SDS011;44843;44.728;10.396;2023-10-19T11:12:12;24.25;;;11.52;;
59052;SDS011;44843;44.728;10.396;2023-10-19T11:14:39;20.63;;;11.65;;
59052;SDS011;44843;44.728;10.396;2023-10-19T11:17:15;20.88;;;11.20;;
59052;SDS011;44843;44.728;10.396;2023-10-19T11:19:41;19.85;;;10.68;;
59052;SDS011;44843;44.728;10.396;2023-10-19T11:22:09;23.13;;;12.20;;
59052;SDS011;44843;44.728;10.396;2023-10-19T11:24:34;22.52;;;11.45;;
59052;SDS011;44843;44.728;10.396;2023-10-19T11:27:05;24.20;;;11.75;;
59052;SDS011;44843;44.728;10.396;2023-10-19T11:29:30;21.55;;;10.85;;
59052;SDS011;44843;44.728;10.396;2023-10-19T11:31:58;19.40;;;10.77;;
59052;SDS011;44843;44.728;10.396;2023-10-19T11:34:24;19.00;;;11.02;;
59052;SDS011;44843;44.728;10.396;2023-10-19T11:36:53;22.42;;;10.77;;
59052;SDS011;44843;44.728;10.396;2023-10-19T11:39:21;20.27;;;10.98;;
59052;SDS011;44843;44.728;10.396;2023-10-19T11:41:48;21.55;;;11.57;;
59052;SDS011;44843;44.728;10.396;2023-10-19T11:44:13;17.75;;;10.77;;
59052;SDS011;44843;44.728;10.396;2023-10-19T11:46:39;17.50;;;9.90;;
59052;SDS011;44843;44.728;10.396;2023-10-19T11:49:04;20.33;;;11.02;;
59052;SDS011;44843;44.728;10.396;2023-10-19T11:51:29;17.67;;;10.68;;
59052;SDS011;44843;44.728;10.396;2023-10-19T11:53:56;19.60;;;11.32;;
59052;SDS011;44843;44.728;10.396;2023-10-19T11:56:21;18.25;;;10.38;;
59052;SDS011;44843;44.728;10.396;2023-10-19T11:58:47;21.95;;;11.38;;
59052;SDS011;44843;44.728;10.396;2023-10-19T12:01:12;18.48;;;10.60;;
59052;SDS011;44843;44.728;10.396;2023-10-19T12:03:37;20.83;;;10.85;;
59052;SDS011;44843;44.728;10.396;2023-10-19T12:06:04;16.63;;;9.80;;
59052;SDS011;44843;44.728;10.396;2023-10-19T12:08:31;16.48;;;10.23;;
59052;SDS011;44843;44.728;10.396;2023-10-19T12:10:56;19.13;;;9.63;;
59052;SDS011;44843;44.728;10.396;2023-10-19T12:13:22;14.88;;;9.23;;
59052;SDS011;44843;44.728;10.396;2023-10-19T12:15:47;20.33;;;9.32;;
59052;SDS011;44843;44.728;10.396;2023-10-19T12:18:22;17.90;;;9.88;;
59052;SDS011;44843;44.728;10.396;2023-10-19T12:20:48;17.95;;;10.25;;
59052;SDS011;44843;44.728;10.396;2023-10-19T12:23:13;19.38;;;10.23;;
59052;SDS011;44843;44.728;10.396;2023-10-19T12:25:39;19.48;;;10.55;;
59052;SDS011;44843;44.728;10.396;2023-10-19T12:28:04;17.33;;;10.10;;
59052;SDS011;44843;44.728;10.396;2023-10-19T12:30:30;18.23;;;10.13;;
59052;SDS011;44843;44.728;10.396;2023-10-19T12:33:02;19.30;;;10.25;;
59052;SDS011;44843;44.728;10.396;2023-10-19T12:35:30;18.05;;;9.93;;
59052;SDS011;44843;44.728;10.396;2023-10-19T12:38:09;17.70;;;9.40;;
59052;SDS011;44843;44.728;10.396;2023-10-19T12:40:41;17.83;;;9.25;;
59052;SDS011;44843;44.728;10.396;2023-10-19T12:43:06;15.98;;;9.80;;
59052;SDS011;44843;44.728;10.396;2023-10-19T12:45:32;18.20;;;9.48;;
59052;SDS011;44843;44.728;10.396;2023-10-19T12:48:02;15.10;;;9.40;;
59052;SDS011;44843;44.728;10.396;2023-10-19T12:50:27;16.13;;;9.30;;
59052;SDS011;44843;44.728;10.396;2023-10-19T12:52:53;17.00;;;10.73;;
59052;SDS011;44843;44.728;10.396;2023-10-19T12:55:21;16.08;;;9.80;;
59052;SDS011;44843;44.728;10.396;2023-10-19T12:57:46;15.88;;;9.70;;
59052;SDS011;44843;44.728;10.396;2023-10-19T13:00:11;17.88;;;10.73;;
59052;SDS011;44843;44.728;10.396;2023-10-19T13:02:56;15.90;;;9.88;;
59052;SDS011;44843;44.728;10.396;2023-10-19T13:05:25;19.73;;;10.75;;
59052;SDS011;44843;44.728;10.396;2023-10-19T13:07:51;26.52;;;13.75;;
59052;SDS011;44843;44.728;10.396;2023-10-19T13:10:16;22.63;;;13.10;;
59052;SDS011;44843;44.728;10.396;2023-10-19T13:12:41;20.88;;;11.38;;
59052;SDS011;44843;44.728;10.396;2023-10-19T13:15:07;18.98;;;10.88;;
59052;SDS011;44843;44.728;10.396;2023-10-19T13:17:41;17.13;;;10.57;;
59052;SDS011;44843;44.728;10.396;2023-10-19T13:20:08;17.55;;;9.98;;
59052;SDS011;44843;44.728;10.396;2023-10-19T13:22:43;16.95;;;10.60;;
59052;SDS011;44843;44.728;10.396;2023-10-19T13:25:09;20.23;;;11.07;;
59052;SDS011;44843;44.728;10.396;2023-10-19T13:27:37;16.55;;;10.82;;
59052;SDS011;44843;44.728;10.396;2023-10-19T13:30:03;18.63;;;11.23;;
59052;SDS011;44843;44.728;10.396;2023-10-19T13:32:28;18.08;;;11.30;;
59052;SDS011;44843;44.728;10.396;2023-10-19T13:34:54;22.60;;;12.43;;
59052;SDS011;44843;44.728;10.396;2023-10-19T13:37:20;21.38;;;11.35;;
59052;SDS011;44843;44.728;10.396;2023-10-19T13:39:45;21.35;;;12.15;;
59052;SDS011;44843;44.728;10.396;2023-10-19T13:42:11;18.55;;;12.10;;
59052;SDS011;44843;44.728;10.396;2023-10-19T13:44:36;21.52;;;12.23;;
59052;SDS011;44843;44.728;10.396;2023-10-19T13:47:02;24.55;;;13.02;;
59052;SDS011;44843;44.728;10.396;2023-10-19T13:49:30;19.50;;;11.85;;
59052;SDS011;44843;44.728;10.396;2023-10-19T13:51:56;17.67;;;10.13;;
59052;SDS011;44843;44.728;10.396;2023-10-19T13:54:21;14.77;;;9.07;;
59052;SDS011;44843;44.728;10.396;2023-10-19T13:56:47;19.40;;;10.85;;
59052;SDS011;44843;44.728;10.396;2023-10-19T13:59:12;20.17;;;10.93;;
59052;SDS011;44843;44.728;10.396;2023-10-19T14:01:39;15.38;;;10.25;;
59052;SDS011;44843;44.728;10.396;2023-10-19T14:04:04;17.20;;;9.52;;
59052;SDS011;44843;44.728;10.396;2023-10-19T14:06:29;14.43;;;9.13;;
59052;SDS011;44843;44.728;10.396;2023-10-19T14:08:54;12.95;;;8.75;;
59052;SDS011;44843;44.728;10.396;2023-10-19T14:11:20;13.50;;;9.55;;
59052;SDS011;44843;44.728;10.396;2023-10-19T14:13:47;16.05;;;9.77;;
59052;SDS011;44843;44.728;10.396;2023-10-19T14:16:12;15.15;;;8.77;;
59052;SDS011;44843;44.728;10.396;2023-10-19T14:18:38;12.30;;;8.85;;
59052;SDS011;44843;44.728;10.396;2023-10-19T14:21:13;16.00;;;9.85;;
59052;SDS011;44843;44.728;10.396;2023-10-19T14:23:39;15.50;;;9.30;;
59052;SDS011;44843;44.728;10.396;2023-10-19T14:26:05;11.82;;;7.93;;
59052;SDS011;44843;44.728;10.396;2023-10-19T14:28:31;15.77;;;9.38;;